Terminal Aerodrome Forecast
Issued by NWS

Home | Current Version | Previous Version | Text Only | Print | Product List | Glossary Off
Versions: 1 2 3 4 5 6 7 8 9 10 11 12 13 14 15 16 17

182
FTUS43 KMPX 311134
TAFAXN
TAF
KAXN 311134Z 3112/0112 16010KT P6SM SCT022 OVC040
     FM311400 23012KT P6SM BKN025 OVC040
     FM311700 22013G20KT P6SM SCT050
     FM010000 22010KT P6SM BKN035=

USA.gov is the U.S. government's official web portal to all federal, state and local government web resources and services.